Flatonia, Texas
Current Conditions -  °F | °C
As of 5:55 AM on Monday 24 Nov 2014 (Local Time) from K3T5 Reporting Station
Clear Clear  
Wind Chill: 50°   Ceiling: Unl
Heat Index: 50°   Visibility: 10mi
Dew Point: 39°   Wind: 0mph
Humidity: 67%   Direction: NA
Pressure: 29.94"   Gusts: NA
Location:  29.69°N, 97.11°W
Report Text: K3T5 241155Z AUTO 00000KT 10SM CLR 10/04 A2994 RMK AO2 T00990041 10171 20099
Loading
Personal Weather Stations






























Interactive Weather Map New forecast layout! Learn more

10-Day Weather Forecast

Advertisements
Track Severe Weather on mobile